createdAt,value
2018-08-13T00:00:45.162Z,46.30
2018-08-13T00:03:12.836Z,43.60
2018-08-13T00:05:40.549Z,48.00
2018-08-13T00:08:08.232Z,49.10
2018-08-13T00:17:59.489Z,44.70
2018-08-13T00:27:49.356Z,45.00
2018-08-13T00:30:16.812Z,44.70
2018-08-13T00:32:44.535Z,45.90
2018-08-13T00:37:39.532Z,44.40
2018-08-13T00:42:35.684Z,44.80
2018-08-13T00:49:59.015Z,46.30
2018-08-13T00:52:26.558Z,45.90
2018-08-13T00:54:54.164Z,45.40
2018-08-13T00:57:21.906Z,45.30
2018-08-13T01:02:16.831Z,45.50
2018-08-13T01:04:44.303Z,44.70
2018-08-13T01:07:11.905Z,45.20
2018-08-13T01:09:39.437Z,45.00
2018-08-13T01:12:07.097Z,44.70
2018-08-13T01:14:35.262Z,44.80
2018-08-13T01:17:02.839Z,45.30
2018-08-13T01:19:30.552Z,46.00
2018-08-13T01:21:59.029Z,46.00
2018-08-13T01:24:26.620Z,44.80
2018-08-13T01:26:54.280Z,45.70
2018-08-13T01:29:21.831Z,45.60
2018-08-13T01:31:49.375Z,45.80
2018-08-13T01:34:16.869Z,46.30
2018-08-13T01:36:44.416Z,45.40
2018-08-13T01:39:11.988Z,45.50
2018-08-13T01:41:39.537Z,45.60
2018-08-13T01:44:07.140Z,45.90
2018-08-13T01:46:35.020Z,45.70
2018-08-13T01:51:30.029Z,47.20
2018-08-13T01:53:57.655Z,47.00
2018-08-13T01:56:25.161Z,46.30
2018-08-13T01:58:52.605Z,45.80
2018-08-13T02:01:20.122Z,46.20
2018-08-13T02:16:52.193Z,46.10
2018-08-13T02:19:19.883Z,46.60
2018-08-13T02:21:47.406Z,46.90
2018-08-13T02:24:14.928Z,47.30
2018-08-13T02:26:42.427Z,47.20
2018-08-13T02:29:10.055Z,47.30
2018-08-13T02:31:37.557Z,47.20
2018-08-13T02:34:05.232Z,46.30
2018-08-13T02:36:32.773Z,45.80
2018-08-13T02:39:00.358Z,46.20
2018-08-13T02:41:27.777Z,46.40
2018-08-13T02:43:55.430Z,47.00
2018-08-13T02:46:22.976Z,47.00
2018-08-13T02:48:50.468Z,47.80
2018-08-13T02:51:17.988Z,46.90
2018-08-13T02:53:45.643Z,47.20
2018-08-13T02:56:13.184Z,47.30
2018-08-13T02:58:40.748Z,47.10
2018-08-13T03:01:08.730Z,47.00
2018-08-13T03:03:36.300Z,47.30
2018-08-13T03:06:04.044Z,47.20
2018-08-13T03:08:31.543Z,46.80
2018-08-13T03:10:59.255Z,47.40
2018-08-13T03:13:26.952Z,47.50
2018-08-13T03:15:54.435Z,47.60
2018-08-13T03:18:21.963Z,48.10
2018-08-13T03:20:49.602Z,47.60
2018-08-13T03:23:17.081Z,46.90
2018-08-13T03:25:44.619Z,46.70
2018-08-13T03:28:12.827Z,46.90
2018-08-13T03:30:40.496Z,47.20
2018-08-13T03:33:08.123Z,47.70
2018-08-13T03:35:35.643Z,48.00
2018-08-13T03:38:03.172Z,48.60
2018-08-13T03:40:30.736Z,48.60
2018-08-13T03:42:58.221Z,48.60
2018-08-13T03:45:25.759Z,48.90
2018-08-13T03:47:53.321Z,48.70
2018-08-13T03:50:20.765Z,48.10
2018-08-13T03:52:48.254Z,48.80
2018-08-13T03:55:15.829Z,47.60
2018-08-13T03:57:43.327Z,48.20
2018-08-13T04:00:14.133Z,48.00
2018-08-13T04:15:46.287Z,48.20
2018-08-13T04:18:13.964Z,48.20
2018-08-13T04:20:41.489Z,47.90
2018-08-13T04:23:08.970Z,48.20
2018-08-13T04:25:36.453Z,48.00
2018-08-13T04:28:04.307Z,48.00
2018-08-13T04:30:32.048Z,48.70
2018-08-13T04:32:59.516Z,48.00
2018-08-13T04:35:27.069Z,48.70
2018-08-13T04:37:54.647Z,49.00
2018-08-13T04:40:22.196Z,48.00
2018-08-13T04:42:49.849Z,48.60
2018-08-13T04:45:17.353Z,48.70
2018-08-13T04:47:51.473Z,49.00
2018-08-13T04:50:19.438Z,48.50
2018-08-13T04:52:48.124Z,49.50
2018-08-13T04:55:15.747Z,49.60
2018-08-13T04:57:43.439Z,49.30
2018-08-13T05:00:10.980Z,49.80
2018-08-13T05:02:38.764Z,49.40
2018-08-13T05:05:07.745Z,50.40
2018-08-13T05:07:35.435Z,49.00
2018-08-13T05:10:03.498Z,50.00
2018-08-13T05:12:32.274Z,49.90
2018-08-13T05:15:00.110Z,49.90
2018-08-13T05:17:27.612Z,49.90
2018-08-13T05:19:55.280Z,50.40
2018-08-13T05:22:24.872Z,50.60
2018-08-13T05:24:53.625Z,50.50
2018-08-13T05:27:21.226Z,51.00
2018-08-13T05:29:48.793Z,50.60
2018-08-13T05:32:16.308Z,50.50
2018-08-13T05:34:44.384Z,51.10
2018-08-13T05:37:11.944Z,51.10
2018-08-13T05:39:39.600Z,51.50
2018-08-13T05:42:07.727Z,49.40
2018-08-13T05:44:35.292Z,50.30
2018-08-13T05:47:02.793Z,50.80
2018-08-13T05:49:31.202Z,51.80
2018-08-13T05:51:58.880Z,54.40
2018-08-13T05:54:27.098Z,55.90
2018-08-13T05:56:55.400Z,55.80
2018-08-13T05:59:23.010Z,56.40
2018-08-13T06:01:50.516Z,56.90
2018-08-13T06:04:18.236Z,57.20
2018-08-13T06:06:46.323Z,58.50
2018-08-13T06:09:13.837Z,58.20
2018-08-13T06:11:41.593Z,62.60
2018-08-13T06:14:09.187Z,64.80
2018-08-13T06:16:36.954Z,64.60
2018-08-13T06:19:04.576Z,65.10
2018-08-13T06:21:32.141Z,65.40
2018-08-13T06:23:59.744Z,65.90
2018-08-13T06:26:27.319Z,67.10
2018-08-13T06:28:55.525Z,66.50
2018-08-13T06:31:24.347Z,67.30
2018-08-13T06:33:52.684Z,66.40
2018-08-13T06:36:20.489Z,66.40
2018-08-13T06:38:48.187Z,67.10
2018-08-13T06:41:15.657Z,66.00
2018-08-13T06:43:43.188Z,66.30
2018-08-13T06:46:10.869Z,66.30
2018-08-13T06:48:38.393Z,66.00
2018-08-13T06:51:05.967Z,67.30
2018-08-13T06:53:34.950Z,67.50
2018-08-13T06:56:02.513Z,68.50
2018-08-13T06:58:30.207Z,68.30
2018-08-13T07:00:58.301Z,69.40
2018-08-13T07:05:53.281Z,69.60
2018-08-13T07:08:20.922Z,71.80
2018-08-13T07:10:48.725Z,69.80
2018-08-13T07:13:16.216Z,67.50
2018-08-13T07:15:43.925Z,68.60
2018-08-13T07:18:12.300Z,69.00
2018-08-13T07:20:41.111Z,68.90
2018-08-13T07:23:08.881Z,70.60
2018-08-13T07:25:37.096Z,72.30
2018-08-13T07:28:05.228Z,72.10
2018-08-13T07:30:32.746Z,70.90
2018-08-13T07:33:00.228Z,71.30
2018-08-13T07:35:28.546Z,71.60
2018-08-13T07:37:56.279Z,72.30
2018-08-13T07:40:23.837Z,71.30
2018-08-13T07:42:51.916Z,71.10
2018-08-13T07:45:19.501Z,70.60
2018-08-13T07:47:48.315Z,71.80
2018-08-13T07:50:15.948Z,73.30
2018-08-13T07:52:44.166Z,73.90
2018-08-13T07:55:12.681Z,73.60
2018-08-13T07:57:41.322Z,74.40
2018-08-13T08:00:11.290Z,74.50
2018-08-13T08:02:38.934Z,75.40
2018-08-13T08:05:07.067Z,75.80
2018-08-13T08:07:34.971Z,74.50
2018-08-13T08:10:03.064Z,75.50
2018-08-13T08:12:30.593Z,74.10
2018-08-13T08:14:58.617Z,74.60
2018-08-13T08:17:26.152Z,74.60
2018-08-13T08:19:53.801Z,75.00
2018-08-13T08:22:21.371Z,77.00
2018-08-13T08:24:49.357Z,74.60
2018-08-13T08:27:16.912Z,75.80
2018-08-13T08:29:44.467Z,74.70
2018-08-13T08:32:12.050Z,74.60
2018-08-13T08:34:39.773Z,74.80
2018-08-13T08:37:07.977Z,74.10
2018-08-13T08:39:35.555Z,74.30
2018-08-13T08:42:03.152Z,74.10
2018-08-13T08:44:30.721Z,73.30
2018-08-13T08:46:58.267Z,72.70
2018-08-13T08:49:26.861Z,72.90
2018-08-13T08:51:54.570Z,73.30
2018-08-13T08:54:23.059Z,73.40
2018-08-13T08:56:51.527Z,74.80
2018-08-13T08:59:19.639Z,74.70
2018-08-13T09:01:47.197Z,74.70
2018-08-13T09:04:14.735Z,75.60
2018-08-13T09:06:42.775Z,74.20
2018-08-13T09:09:12.717Z,74.20
2018-08-13T09:11:40.891Z,74.80
2018-08-13T09:14:09.361Z,75.40
2018-08-13T09:16:39.602Z,75.80
2018-08-13T09:19:18.671Z,76.60
2018-08-13T09:21:50.089Z,76.30
2018-08-13T09:24:28.828Z,75.10
2018-08-13T09:27:07.862Z,75.30
2018-08-13T09:29:46.773Z,73.50
2018-08-13T09:32:27.299Z,71.90
2018-08-13T09:35:00.849Z,73.60
2018-08-13T09:37:28.889Z,73.80
2018-08-13T09:39:57.142Z,74.50
2018-08-13T09:42:25.253Z,74.90
2018-08-13T09:44:54.610Z,74.50
2018-08-13T09:47:22.319Z,75.40
2018-08-13T09:49:49.968Z,75.70
2018-08-13T09:52:17.670Z,75.60
2018-08-13T09:54:45.836Z,74.50
2018-08-13T09:57:13.886Z,72.90
2018-08-13T09:59:41.567Z,72.50
2018-08-13T10:02:09.198Z,73.30
2018-08-13T10:04:37.464Z,75.20
2018-08-13T10:07:06.127Z,74.30
2018-08-13T10:09:34.326Z,73.80
2018-08-13T10:12:02.207Z,74.70
2018-08-13T10:14:29.784Z,73.90
2018-08-13T10:16:58.273Z,73.80
2018-08-13T10:19:26.726Z,74.30
2018-08-13T10:21:55.060Z,74.80
2018-08-13T10:24:23.403Z,75.10
2018-08-13T10:26:51.009Z,74.80
2018-08-13T10:29:18.591Z,75.70
2018-08-13T10:31:46.157Z,77.40
2018-08-13T10:34:13.727Z,76.50
2018-08-13T10:36:41.347Z,77.90
2018-08-13T10:39:09.982Z,77.30
2018-08-13T10:41:38.383Z,77.90
2018-08-13T10:44:07.848Z,78.40
2018-08-13T10:46:35.583Z,78.00
2018-08-13T10:49:03.591Z,77.90
2018-08-13T10:51:31.556Z,78.00
2018-08-13T10:54:00.341Z,78.00
2018-08-13T10:56:29.214Z,78.60
2018-08-13T10:58:57.294Z,78.10
2018-08-13T11:01:25.988Z,78.60
2018-08-13T11:03:55.273Z,78.80
2018-08-13T11:06:24.972Z,79.70
2018-08-13T11:08:53.944Z,79.60
2018-08-13T11:11:22.357Z,79.80
2018-08-13T11:13:51.500Z,79.50
2018-08-13T11:16:19.340Z,80.20
2018-08-13T11:18:48.115Z,79.90
2018-08-13T11:21:16.649Z,79.30
2018-08-13T11:23:45.119Z,80.30
2018-08-13T11:26:14.046Z,80.60
2018-08-13T11:28:42.205Z,80.40
2018-08-13T11:31:11.475Z,81.80
2018-08-13T11:33:40.459Z,82.30
2018-08-13T11:36:08.533Z,81.30
2018-08-13T11:38:36.531Z,83.70
2018-08-13T11:41:04.789Z,84.50
2018-08-13T11:43:33.523Z,85.20
2018-08-13T11:46:01.450Z,85.90
2018-08-13T11:48:29.632Z,85.40
2018-08-13T11:53:26.340Z,82.70
2018-08-13T11:55:55.050Z,83.00
2018-08-13T11:58:23.038Z,81.90
2018-08-13T12:00:52.202Z,83.60
2018-08-13T12:03:21.278Z,84.30
2018-08-13T12:05:49.328Z,84.30
2018-08-13T12:08:17.436Z,83.90
2018-08-13T12:10:46.235Z,83.80
2018-08-13T12:13:14.294Z,84.50
2018-08-13T12:15:42.080Z,84.40
2018-08-13T12:18:11.292Z,85.30
2018-08-13T12:20:40.058Z,83.60
2018-08-13T12:23:09.908Z,84.50
2018-08-13T12:25:38.543Z,81.70
2018-08-13T12:28:06.944Z,82.70
2018-08-13T12:30:37.660Z,84.10
2018-08-13T12:33:06.184Z,82.70
2018-08-13T12:35:37.281Z,81.70
2018-08-13T12:38:05.612Z,80.90
2018-08-13T12:40:34.451Z,81.30
2018-08-13T12:43:03.533Z,82.00
2018-08-13T12:45:31.729Z,81.40
2018-08-13T12:48:00.809Z,80.50
2018-08-13T12:50:29.439Z,77.20
2018-08-13T12:52:57.523Z,75.60
2018-08-13T12:56:49.826Z,76.10
2018-08-13T12:59:18.529Z,76.90
2018-08-13T13:01:46.392Z,77.20
2018-08-13T13:04:14.853Z,77.50
2018-08-13T13:06:43.043Z,76.90
2018-08-13T13:09:12.450Z,75.00
2018-08-13T13:11:41.623Z,75.60
2018-08-13T13:14:10.123Z,75.00
2018-08-13T13:16:39.040Z,74.70
2018-08-13T13:19:07.476Z,73.10
2018-08-13T13:21:35.259Z,72.40
2018-08-13T13:24:04.926Z,73.20
2018-08-13T13:26:33.213Z,73.00
2018-08-13T13:29:02.412Z,71.50
2018-08-13T13:31:31.925Z,70.50
2018-08-13T13:34:00.685Z,71.00
2018-08-13T13:36:28.852Z,71.30
2018-08-13T13:38:56.808Z,70.80
2018-08-13T13:41:24.953Z,71.30
2018-08-13T13:43:54.724Z,70.90
2018-08-13T13:46:24.384Z,69.40
2018-08-13T13:48:52.662Z,68.70
2018-08-13T13:51:23.181Z,69.60
2018-08-13T13:53:52.692Z,69.10
2018-08-13T13:56:23.287Z,69.20
2018-08-13T13:58:53.282Z,68.50
2018-08-13T14:01:21.650Z,68.90
2018-08-13T14:03:50.909Z,68.00
2018-08-13T14:06:19.773Z,66.90
2018-08-13T14:08:48.540Z,66.80
2018-08-13T14:11:16.672Z,67.10
2018-08-13T14:13:45.153Z,66.40
2018-08-13T14:16:13.296Z,65.90
2018-08-13T14:18:42.396Z,66.70
2018-08-13T14:21:10.842Z,66.70
2018-08-13T14:23:38.548Z,66.00
2018-08-13T14:26:07.130Z,65.20
2018-08-13T14:28:36.292Z,63.60
2018-08-13T14:32:08.039Z,63.60
2018-08-13T14:34:36.899Z,64.90
2018-08-13T14:39:32.014Z,64.30
2018-08-13T14:42:00.304Z,64.80
2018-08-13T14:44:28.029Z,63.20
2018-08-13T14:46:55.581Z,63.80
2018-08-13T14:49:23.178Z,62.90
2018-08-13T14:51:50.883Z,63.30
2018-08-13T14:54:18.534Z,62.10
2018-08-13T14:56:46.718Z,62.80
2018-08-13T14:59:14.499Z,62.50
2018-08-13T15:01:42.240Z,64.10
2018-08-13T15:04:09.856Z,62.80
2018-08-13T15:06:37.754Z,62.60
2018-08-13T15:09:08.401Z,63.30
2018-08-13T15:11:38.727Z,63.80
2018-08-13T15:14:08.719Z,63.90
2018-08-13T15:16:36.436Z,64.40
2018-08-13T15:19:04.578Z,64.60
2018-08-13T15:21:33.076Z,64.50
2018-08-13T15:24:01.567Z,65.00
2018-08-13T15:26:30.861Z,64.20
2018-08-13T15:28:58.745Z,65.30
2018-08-13T15:33:53.790Z,64.90
2018-08-13T15:36:21.652Z,64.70
2018-08-13T15:38:49.353Z,64.60
2018-08-13T15:41:17.147Z,64.20
2018-08-13T15:43:44.823Z,64.10
2018-08-13T15:46:12.654Z,65.10
2018-08-13T15:48:40.300Z,63.20
2018-08-13T15:51:08.055Z,63.10
2018-08-13T15:56:03.267Z,63.20
2018-08-13T15:58:30.851Z,63.40
2018-08-13T16:00:58.569Z,63.30
2018-08-13T16:05:53.571Z,62.80
2018-08-13T16:10:49.204Z,63.10
2018-08-13T16:13:16.717Z,63.10
2018-08-13T16:15:44.451Z,62.70
2018-08-13T16:18:12.073Z,61.60
2018-08-13T16:20:39.656Z,62.00
2018-08-13T16:23:08.359Z,61.80
2018-08-13T16:25:35.961Z,61.80
2018-08-13T16:28:03.552Z,60.70
2018-08-13T16:30:31.447Z,60.60
2018-08-13T16:32:59.198Z,60.50
2018-08-13T16:35:26.946Z,60.00
2018-08-13T16:37:55.045Z,60.30
2018-08-13T16:40:22.661Z,61.00
2018-08-13T16:42:51.363Z,59.50
2018-08-13T16:45:20.510Z,59.10
2018-08-13T16:47:48.134Z,56.40
2018-08-13T16:50:22.489Z,55.20
2018-08-13T16:52:50.655Z,54.80
2018-08-13T16:55:18.248Z,54.70
2018-08-13T16:57:45.878Z,55.20
2018-08-13T17:00:15.821Z,54.90
2018-08-13T17:02:45.229Z,54.50
2018-08-13T17:05:12.934Z,54.90
2018-08-13T17:07:41.719Z,55.40
2018-08-13T17:10:13.368Z,54.80
2018-08-13T17:12:41.217Z,54.80
2018-08-13T17:15:09.924Z,55.30
2018-08-13T17:17:37.909Z,53.60
2018-08-13T17:20:06.709Z,53.80
2018-08-13T17:22:34.288Z,54.50
2018-08-13T17:25:02.552Z,54.30
2018-08-13T17:27:30.442Z,54.90
2018-08-13T17:29:58.180Z,53.70
2018-08-13T17:35:24.793Z,55.00
2018-08-13T17:37:52.803Z,55.40
2018-08-13T17:40:22.480Z,55.60
2018-08-13T17:42:51.104Z,55.10
2018-08-13T17:45:19.042Z,55.20
2018-08-13T17:47:47.022Z,55.60
2018-08-13T17:50:18.807Z,55.20
2018-08-13T17:52:46.690Z,56.90
2018-08-13T17:55:14.900Z,60.20
2018-08-13T17:57:43.150Z,63.70
2018-08-13T18:00:16.307Z,63.40
2018-08-13T18:02:44.019Z,64.70
2018-08-13T18:05:14.377Z,65.20
2018-08-13T18:07:42.812Z,65.00
2018-08-13T18:15:10.464Z,67.10
2018-08-13T18:42:55.655Z,68.20
2018-08-13T18:50:19.811Z,73.90
2018-08-13T18:52:47.501Z,74.80
2018-08-13T18:55:17.833Z,75.70
2018-08-13T18:57:46.328Z,75.90
2018-08-13T19:00:17.105Z,74.60
2018-08-13T19:02:45.798Z,74.60
2018-08-13T19:05:14.797Z,75.20
2018-08-13T19:07:43.737Z,74.50
2018-08-13T19:12:40.476Z,75.30
2018-08-13T19:15:10.492Z,76.00
2018-08-13T19:20:09.684Z,75.80
2018-08-13T19:22:37.625Z,75.40
2018-08-13T19:25:08.555Z,76.00
2018-08-13T19:27:36.508Z,76.40
2018-08-13T19:30:05.313Z,77.70
2018-08-13T19:32:33.140Z,76.40
2018-08-13T19:35:02.023Z,77.00
2018-08-13T19:37:29.717Z,78.30
2018-08-13T19:39:57.485Z,77.00
2018-08-13T19:42:25.308Z,76.50
2018-08-13T19:44:53.250Z,77.00
2018-08-13T19:49:48.669Z,77.50
2018-08-13T19:52:16.540Z,78.20
2018-08-13T19:54:44.426Z,79.20
2018-08-13T19:57:12.185Z,78.60
2018-08-13T19:59:40.150Z,78.10
2018-08-13T20:02:07.988Z,78.40
2018-08-13T20:04:35.826Z,78.80
2018-08-13T20:07:03.936Z,79.10
2018-08-13T20:11:59.983Z,79.30
2018-08-13T20:14:28.752Z,79.10
2018-08-13T20:16:56.774Z,79.70
2018-08-13T20:19:25.376Z,79.80
2018-08-13T20:21:53.356Z,79.50
2018-08-13T20:24:23.112Z,79.80
2018-08-13T20:26:51.123Z,79.50
2018-08-13T20:29:18.691Z,79.80
2018-08-13T20:31:46.971Z,79.50
2018-08-13T20:34:14.521Z,80.10
2018-08-13T20:36:42.124Z,81.10
2018-08-13T20:39:13.245Z,80.80
2018-08-13T20:41:41.095Z,80.50
2018-08-13T20:44:09.572Z,79.80
2018-08-13T20:46:37.466Z,79.30
2018-08-13T20:49:05.621Z,79.90
2018-08-13T20:51:33.634Z,78.50
2018-08-13T20:54:01.298Z,78.70
2018-08-13T20:56:28.860Z,77.90
2018-08-13T20:58:56.420Z,77.30
2018-08-13T21:01:24.035Z,77.60
2018-08-13T21:03:51.959Z,76.60
2018-08-13T21:06:19.513Z,75.40
2018-08-13T21:08:47.055Z,75.90
2018-08-13T21:11:14.588Z,75.10
2018-08-13T21:13:42.201Z,75.20
2018-08-13T21:16:09.817Z,75.10
2018-08-13T21:18:37.396Z,75.70
2018-08-13T21:21:04.949Z,76.80
2018-08-13T21:25:59.981Z,76.00
2018-08-13T21:28:27.541Z,76.80
2018-08-13T21:30:55.101Z,77.50
2018-08-13T21:33:22.684Z,76.90
2018-08-13T21:35:50.231Z,77.00
2018-08-13T21:38:17.763Z,77.40
2018-08-13T21:40:45.296Z,77.90
2018-08-13T21:43:12.912Z,77.90
2018-08-13T21:45:40.465Z,78.80
2018-08-13T21:48:07.968Z,78.10
2018-08-13T21:50:35.723Z,77.80
2018-08-13T21:53:03.245Z,77.90
2018-08-13T21:55:31.372Z,77.80
2018-08-13T21:57:58.908Z,77.70
2018-08-13T22:00:30.320Z,77.90
2018-08-13T22:03:00.964Z,77.90
2018-08-13T22:05:28.543Z,77.60
2018-08-13T22:07:56.280Z,77.50
2018-08-13T22:10:23.924Z,77.80
2018-08-13T22:12:51.555Z,78.30
2018-08-13T22:15:25.813Z,78.50
2018-08-13T22:17:54.310Z,78.50
2018-08-13T22:20:22.166Z,78.30
2018-08-13T22:22:49.752Z,78.60
2018-08-13T22:25:19.913Z,77.80
2018-08-13T22:27:47.566Z,77.80
2018-08-13T22:30:15.167Z,78.10
2018-08-13T22:32:42.739Z,78.20
2018-08-13T22:35:10.560Z,79.00
2018-08-13T22:37:40.154Z,77.60
2018-08-13T22:40:10.993Z,77.90
2018-08-13T22:42:38.644Z,78.30
2018-08-13T22:45:07.296Z,77.70
2018-08-13T22:47:34.842Z,77.90
2018-08-13T22:50:03.950Z,78.30
2018-08-13T22:52:31.521Z,77.10
2018-08-13T22:54:58.987Z,77.00
2018-08-13T22:57:26.548Z,77.40
2018-08-13T22:59:54.080Z,77.60
2018-08-13T23:02:21.572Z,77.80
2018-08-13T23:04:49.139Z,78.10
2018-08-13T23:09:44.106Z,80.50
2018-08-13T23:12:11.672Z,80.70
2018-08-13T23:14:39.236Z,81.20
2018-08-13T23:17:06.732Z,80.00
2018-08-13T23:19:34.273Z,80.70
2018-08-13T23:22:01.960Z,81.10
2018-08-13T23:24:29.496Z,81.20
2018-08-13T23:26:57.311Z,80.70
2018-08-13T23:29:24.853Z,81.20
2018-08-13T23:31:52.415Z,81.80
2018-08-13T23:34:19.990Z,81.30
2018-08-13T23:36:47.608Z,81.10
2018-08-13T23:39:15.105Z,79.00
2018-08-13T23:41:43.279Z,78.00
2018-08-13T23:44:10.819Z,77.60
2018-08-13T23:46:38.432Z,78.70
2018-08-13T23:49:06.204Z,79.60
2018-08-13T23:51:33.968Z,79.10
2018-08-13T23:54:01.505Z,79.80
2018-08-13T23:56:29.026Z,80.70
2018-08-13T23:58:56.571Z,80.50
